sensor_id;sensor_type;location;lat;lon;timestamp;P1;durP1;ratioP1;P2;durP2;ratioP2
17965;SDS011;9108;53.204;10.424;2022-11-20T00:00:23;18.23;;;8.32;;
17965;SDS011;9108;53.204;10.424;2022-11-20T00:02:50;17.00;;;8.20;;
17965;SDS011;9108;53.204;10.424;2022-11-20T00:05:17;18.17;;;8.43;;
17965;SDS011;9108;53.204;10.424;2022-11-20T00:07:45;18.55;;;9.10;;
17965;SDS011;9108;53.204;10.424;2022-11-20T00:10:14;20.48;;;9.40;;
17965;SDS011;9108;53.204;10.424;2022-11-20T00:12:41;19.70;;;9.07;;
17965;SDS011;9108;53.204;10.424;2022-11-20T00:15:09;18.05;;;9.32;;
17965;SDS011;9108;53.204;10.424;2022-11-20T00:17:36;21.52;;;10.27;;
17965;SDS011;9108;53.204;10.424;2022-11-20T00:20:03;20.90;;;9.80;;
17965;SDS011;9108;53.204;10.424;2022-11-20T00:22:31;18.77;;;9.75;;
17965;SDS011;9108;53.204;10.424;2022-11-20T00:24:58;20.05;;;9.98;;
17965;SDS011;9108;53.204;10.424;2022-11-20T00:27:26;20.45;;;10.55;;
17965;SDS011;9108;53.204;10.424;2022-11-20T00:29:53;19.83;;;10.00;;
17965;SDS011;9108;53.204;10.424;2022-11-20T00:32:21;20.70;;;9.77;;
17965;SDS011;9108;53.204;10.424;2022-11-20T00:34:48;19.87;;;9.87;;
17965;SDS011;9108;53.204;10.424;2022-11-20T00:37:15;20.05;;;9.82;;
17965;SDS011;9108;53.204;10.424;2022-11-20T00:39:42;20.58;;;10.30;;
17965;SDS011;9108;53.204;10.424;2022-11-20T00:42:09;21.65;;;10.93;;
17965;SDS011;9108;53.204;10.424;2022-11-20T00:44:38;20.05;;;10.55;;
17965;SDS011;9108;53.204;10.424;2022-11-20T00:47:05;18.33;;;9.90;;
17965;SDS011;9108;53.204;10.424;2022-11-20T00:49:32;18.75;;;10.48;;
17965;SDS011;9108;53.204;10.424;2022-11-20T00:51:59;20.23;;;10.90;;
17965;SDS011;9108;53.204;10.424;2022-11-20T00:54:26;19.10;;;10.38;;
17965;SDS011;9108;53.204;10.424;2022-11-20T00:56:54;19.30;;;10.43;;
17965;SDS011;9108;53.204;10.424;2022-11-20T00:59:21;20.43;;;10.50;;
17965;SDS011;9108;53.204;10.424;2022-11-20T01:01:49;18.95;;;10.27;;
17965;SDS011;9108;53.204;10.424;2022-11-20T01:04:16;18.58;;;10.20;;
17965;SDS011;9108;53.204;10.424;2022-11-20T01:06:44;19.33;;;10.57;;
17965;SDS011;9108;53.204;10.424;2022-11-20T01:09:11;19.25;;;10.30;;
17965;SDS011;9108;53.204;10.424;2022-11-20T01:11:39;19.00;;;10.30;;
17965;SDS011;9108;53.204;10.424;2022-11-20T01:14:09;18.02;;;9.85;;
17965;SDS011;9108;53.204;10.424;2022-11-20T01:16:37;17.02;;;9.50;;
17965;SDS011;9108;53.204;10.424;2022-11-20T01:19:06;20.20;;;10.43;;
17965;SDS011;9108;53.204;10.424;2022-11-20T01:21:34;19.17;;;10.13;;
17965;SDS011;9108;53.204;10.424;2022-11-20T01:24:02;17.38;;;9.80;;
17965;SDS011;9108;53.204;10.424;2022-11-20T01:26:31;20.02;;;10.30;;
17965;SDS011;9108;53.204;10.424;2022-11-20T01:28:59;18.67;;;9.90;;
17965;SDS011;9108;53.204;10.424;2022-11-20T01:31:27;18.05;;;9.48;;
17965;SDS011;9108;53.204;10.424;2022-11-20T01:33:55;17.80;;;9.57;;
17965;SDS011;9108;53.204;10.424;2022-11-20T01:36:24;20.15;;;9.95;;
17965;SDS011;9108;53.204;10.424;2022-11-20T01:38:52;21.52;;;10.60;;
17965;SDS011;9108;53.204;10.424;2022-11-20T01:41:20;19.45;;;10.32;;
17965;SDS011;9108;53.204;10.424;2022-11-20T01:44:05;17.60;;;9.50;;
17965;SDS011;9108;53.204;10.424;2022-11-20T01:46:32;19.05;;;9.20;;
17965;SDS011;9108;53.204;10.424;2022-11-20T01:49:02;16.65;;;8.80;;
17965;SDS011;9108;53.204;10.424;2022-11-20T01:51:32;16.20;;;8.88;;
17965;SDS011;9108;53.204;10.424;2022-11-20T01:54:01;16.60;;;9.05;;
17965;SDS011;9108;53.204;10.424;2022-11-20T01:56:29;17.13;;;9.15;;
17965;SDS011;9108;53.204;10.424;2022-11-20T01:58:58;17.00;;;8.73;;
17965;SDS011;9108;53.204;10.424;2022-11-20T02:01:27;15.20;;;8.80;;
17965;SDS011;9108;53.204;10.424;2022-11-20T02:03:54;15.88;;;9.05;;
17965;SDS011;9108;53.204;10.424;2022-11-20T02:06:23;19.13;;;9.32;;
17965;SDS011;9108;53.204;10.424;2022-11-20T02:08:52;17.07;;;9.23;;
17965;SDS011;9108;53.204;10.424;2022-11-20T02:11:19;16.40;;;9.10;;
17965;SDS011;9108;53.204;10.424;2022-11-20T02:13:46;15.43;;;8.90;;
17965;SDS011;9108;53.204;10.424;2022-11-20T02:16:14;16.90;;;9.27;;
17965;SDS011;9108;53.204;10.424;2022-11-20T02:18:42;16.80;;;9.27;;
17965;SDS011;9108;53.204;10.424;2022-11-20T02:21:12;16.77;;;9.05;;
17965;SDS011;9108;53.204;10.424;2022-11-20T02:26:13;15.82;;;8.98;;
17965;SDS011;9108;53.204;10.424;2022-11-20T02:28:42;18.83;;;9.35;;
17965;SDS011;9108;53.204;10.424;2022-11-20T02:31:09;18.45;;;9.57;;
17965;SDS011;9108;53.204;10.424;2022-11-20T02:33:36;17.60;;;9.37;;
17965;SDS011;9108;53.204;10.424;2022-11-20T02:36:03;17.33;;;9.43;;
17965;SDS011;9108;53.204;10.424;2022-11-20T02:38:31;17.35;;;9.77;;
17965;SDS011;9108;53.204;10.424;2022-11-20T02:40:58;17.83;;;9.50;;
17965;SDS011;9108;53.204;10.424;2022-11-20T02:43:27;18.63;;;9.70;;
17965;SDS011;9108;53.204;10.424;2022-11-20T02:45:54;22.00;;;10.73;;
17965;SDS011;9108;53.204;10.424;2022-11-20T02:48:21;21.42;;;11.52;;
17965;SDS011;9108;53.204;10.424;2022-11-20T02:50:48;23.45;;;11.85;;
17965;SDS011;9108;53.204;10.424;2022-11-20T02:53:15;22.75;;;10.93;;
17965;SDS011;9108;53.204;10.424;2022-11-20T02:55:42;22.00;;;11.50;;
17965;SDS011;9108;53.204;10.424;2022-11-20T02:58:10;21.37;;;11.00;;
17965;SDS011;9108;53.204;10.424;2022-11-20T03:00:38;22.33;;;11.35;;
17965;SDS011;9108;53.204;10.424;2022-11-20T03:03:05;23.80;;;11.50;;
17965;SDS011;9108;53.204;10.424;2022-11-20T03:05:33;23.50;;;11.30;;
17965;SDS011;9108;53.204;10.424;2022-11-20T03:08:03;21.63;;;11.20;;
17965;SDS011;9108;53.204;10.424;2022-11-20T03:10:30;21.60;;;10.37;;
17965;SDS011;9108;53.204;10.424;2022-11-20T03:12:57;21.20;;;10.55;;
17965;SDS011;9108;53.204;10.424;2022-11-20T03:15:24;21.88;;;10.82;;
17965;SDS011;9108;53.204;10.424;2022-11-20T03:17:54;23.55;;;11.45;;
17965;SDS011;9108;53.204;10.424;2022-11-20T03:20:21;20.42;;;10.27;;
17965;SDS011;9108;53.204;10.424;2022-11-20T03:22:49;21.08;;;10.38;;
17965;SDS011;9108;53.204;10.424;2022-11-20T03:25:16;22.38;;;11.18;;
17965;SDS011;9108;53.204;10.424;2022-11-20T03:27:43;22.83;;;11.10;;
17965;SDS011;9108;53.204;10.424;2022-11-20T03:30:11;20.85;;;10.48;;
17965;SDS011;9108;53.204;10.424;2022-11-20T03:32:38;21.10;;;10.90;;
17965;SDS011;9108;53.204;10.424;2022-11-20T03:35:07;20.25;;;10.18;;
17965;SDS011;9108;53.204;10.424;2022-11-20T03:37:34;19.20;;;9.32;;
17965;SDS011;9108;53.204;10.424;2022-11-20T03:40:02;17.67;;;9.25;;
17965;SDS011;9108;53.204;10.424;2022-11-20T03:42:29;19.08;;;8.85;;
17965;SDS011;9108;53.204;10.424;2022-11-20T03:45:11;17.67;;;8.70;;
17965;SDS011;9108;53.204;10.424;2022-11-20T03:47:39;18.27;;;8.80;;
17965;SDS011;9108;53.204;10.424;2022-11-20T03:50:08;15.18;;;8.52;;
17965;SDS011;9108;53.204;10.424;2022-11-20T03:52:35;17.25;;;8.50;;
17965;SDS011;9108;53.204;10.424;2022-11-20T03:55:03;16.80;;;8.60;;
17965;SDS011;9108;53.204;10.424;2022-11-20T03:57:30;16.52;;;8.68;;
17965;SDS011;9108;53.204;10.424;2022-11-20T03:59:57;19.15;;;8.60;;
17965;SDS011;9108;53.204;10.424;2022-11-20T04:02:24;17.33;;;8.40;;
17965;SDS011;9108;53.204;10.424;2022-11-20T04:04:52;15.23;;;8.30;;
17965;SDS011;9108;53.204;10.424;2022-11-20T04:07:20;16.67;;;8.32;;
17965;SDS011;9108;53.204;10.424;2022-11-20T04:09:47;14.90;;;8.18;;
17965;SDS011;9108;53.204;10.424;2022-11-20T04:12:14;16.50;;;8.50;;
17965;SDS011;9108;53.204;10.424;2022-11-20T04:14:42;16.55;;;8.65;;
17965;SDS011;9108;53.204;10.424;2022-11-20T04:17:09;19.13;;;8.70;;
17965;SDS011;9108;53.204;10.424;2022-11-20T04:19:36;16.02;;;8.27;;
17965;SDS011;9108;53.204;10.424;2022-11-20T04:22:03;17.13;;;8.65;;
17965;SDS011;9108;53.204;10.424;2022-11-20T04:24:31;16.60;;;8.32;;
17965;SDS011;9108;53.204;10.424;2022-11-20T04:26:59;15.90;;;8.13;;
17965;SDS011;9108;53.204;10.424;2022-11-20T04:29:26;16.98;;;8.40;;
17965;SDS011;9108;53.204;10.424;2022-11-20T04:31:53;16.70;;;8.30;;
17965;SDS011;9108;53.204;10.424;2022-11-20T04:34:20;15.30;;;8.10;;
17965;SDS011;9108;53.204;10.424;2022-11-20T04:36:47;16.83;;;8.25;;
17965;SDS011;9108;53.204;10.424;2022-11-20T04:39:14;16.05;;;8.10;;
17965;SDS011;9108;53.204;10.424;2022-11-20T04:41:43;18.02;;;8.50;;
17965;SDS011;9108;53.204;10.424;2022-11-20T04:44:10;17.05;;;8.60;;
17965;SDS011;9108;53.204;10.424;2022-11-20T04:46:38;13.82;;;7.60;;
17965;SDS011;9108;53.204;10.424;2022-11-20T04:49:06;17.55;;;8.35;;
17965;SDS011;9108;53.204;10.424;2022-11-20T04:51:33;17.15;;;8.63;;
17965;SDS011;9108;53.204;10.424;2022-11-20T04:54:01;17.23;;;8.93;;
17965;SDS011;9108;53.204;10.424;2022-11-20T04:56:28;16.70;;;8.63;;
17965;SDS011;9108;53.204;10.424;2022-11-20T04:58:59;17.27;;;8.95;;
17965;SDS011;9108;53.204;10.424;2022-11-20T05:01:26;17.38;;;9.20;;
17965;SDS011;9108;53.204;10.424;2022-11-20T05:03:53;17.05;;;8.98;;
17965;SDS011;9108;53.204;10.424;2022-11-20T05:06:22;20.30;;;10.00;;
17965;SDS011;9108;53.204;10.424;2022-11-20T05:08:49;19.42;;;10.00;;
17965;SDS011;9108;53.204;10.424;2022-11-20T05:11:17;19.73;;;10.15;;
17965;SDS011;9108;53.204;10.424;2022-11-20T05:13:45;18.35;;;9.88;;
17965;SDS011;9108;53.204;10.424;2022-11-20T05:16:14;21.92;;;10.65;;
17965;SDS011;9108;53.204;10.424;2022-11-20T05:18:42;19.90;;;10.20;;
17965;SDS011;9108;53.204;10.424;2022-11-20T05:21:09;19.30;;;10.80;;
17965;SDS011;9108;53.204;10.424;2022-11-20T05:23:37;20.58;;;10.52;;
17965;SDS011;9108;53.204;10.424;2022-11-20T05:26:04;20.05;;;10.77;;
17965;SDS011;9108;53.204;10.424;2022-11-20T05:28:32;22.20;;;11.63;;
17965;SDS011;9108;53.204;10.424;2022-11-20T05:31:03;22.98;;;12.10;;
17965;SDS011;9108;53.204;10.424;2022-11-20T05:33:32;22.85;;;11.55;;
17965;SDS011;9108;53.204;10.424;2022-11-20T05:36:00;22.90;;;12.13;;
17965;SDS011;9108;53.204;10.424;2022-11-20T05:38:27;23.23;;;12.13;;
17965;SDS011;9108;53.204;10.424;2022-11-20T05:40:54;23.73;;;12.70;;
17965;SDS011;9108;53.204;10.424;2022-11-20T05:43:21;25.27;;;13.43;;
17965;SDS011;9108;53.204;10.424;2022-11-20T05:45:52;22.30;;;12.57;;
17965;SDS011;9108;53.204;10.424;2022-11-20T05:48:19;24.33;;;13.07;;
17965;SDS011;9108;53.204;10.424;2022-11-20T05:50:48;26.08;;;13.68;;
17965;SDS011;9108;53.204;10.424;2022-11-20T05:53:15;25.13;;;13.32;;
17965;SDS011;9108;53.204;10.424;2022-11-20T05:55:43;27.40;;;13.77;;
17965;SDS011;9108;53.204;10.424;2022-11-20T05:58:10;24.83;;;13.35;;
17965;SDS011;9108;53.204;10.424;2022-11-20T06:00:37;27.05;;;13.68;;
17965;SDS011;9108;53.204;10.424;2022-11-20T06:03:04;27.23;;;14.07;;
17965;SDS011;9108;53.204;10.424;2022-11-20T06:05:33;30.50;;;14.30;;
17965;SDS011;9108;53.204;10.424;2022-11-20T06:08:01;26.95;;;14.02;;
17965;SDS011;9108;53.204;10.424;2022-11-20T06:10:28;30.30;;;15.00;;
17965;SDS011;9108;53.204;10.424;2022-11-20T06:12:56;30.77;;;15.23;;
17965;SDS011;9108;53.204;10.424;2022-11-20T06:15:24;27.23;;;14.23;;
17965;SDS011;9108;53.204;10.424;2022-11-20T06:17:51;32.17;;;15.52;;
17965;SDS011;9108;53.204;10.424;2022-11-20T06:20:19;31.50;;;15.95;;
17965;SDS011;9108;53.204;10.424;2022-11-20T06:22:46;31.80;;;15.73;;
17965;SDS011;9108;53.204;10.424;2022-11-20T06:25:14;29.70;;;16.00;;
17965;SDS011;9108;53.204;10.424;2022-11-20T06:27:42;33.38;;;16.42;;
17965;SDS011;9108;53.204;10.424;2022-11-20T06:30:09;35.37;;;17.00;;
17965;SDS011;9108;53.204;10.424;2022-11-20T06:32:36;35.85;;;17.48;;
17965;SDS011;9108;53.204;10.424;2022-11-20T06:35:04;32.88;;;16.42;;
17965;SDS011;9108;53.204;10.424;2022-11-20T06:37:31;36.83;;;18.50;;
17965;SDS011;9108;53.204;10.424;2022-11-20T06:39:58;35.70;;;17.85;;
17965;SDS011;9108;53.204;10.424;2022-11-20T06:42:27;35.97;;;17.83;;
17965;SDS011;9108;53.204;10.424;2022-11-20T06:44:54;35.38;;;17.73;;
17965;SDS011;9108;53.204;10.424;2022-11-20T06:47:21;39.83;;;19.58;;
17965;SDS011;9108;53.204;10.424;2022-11-20T06:49:48;39.25;;;19.38;;
17965;SDS011;9108;53.204;10.424;2022-11-20T06:52:15;40.83;;;19.67;;
17965;SDS011;9108;53.204;10.424;2022-11-20T06:54:43;40.78;;;19.88;;
17965;SDS011;9108;53.204;10.424;2022-11-20T06:57:10;42.85;;;20.05;;
17965;SDS011;9108;53.204;10.424;2022-11-20T06:59:38;41.08;;;19.95;;
17965;SDS011;9108;53.204;10.424;2022-11-20T07:02:08;42.78;;;20.52;;
17965;SDS011;9108;53.204;10.424;2022-11-20T07:04:36;45.08;;;20.27;;
17965;SDS011;9108;53.204;10.424;2022-11-20T07:07:03;41.60;;;20.00;;
17965;SDS011;9108;53.204;10.424;2022-11-20T07:09:31;43.03;;;20.70;;
17965;SDS011;9108;53.204;10.424;2022-11-20T07:11:58;43.03;;;19.77;;
17965;SDS011;9108;53.204;10.424;2022-11-20T07:14:25;38.92;;;19.67;;
17965;SDS011;9108;53.204;10.424;2022-11-20T07:16:54;41.25;;;19.40;;
17965;SDS011;9108;53.204;10.424;2022-11-20T07:19:21;38.70;;;19.45;;
17965;SDS011;9108;53.204;10.424;2022-11-20T07:21:48;40.17;;;18.92;;
17965;SDS011;9108;53.204;10.424;2022-11-20T07:24:15;42.72;;;19.55;;
17965;SDS011;9108;53.204;10.424;2022-11-20T07:26:46;38.90;;;18.83;;
17965;SDS011;9108;53.204;10.424;2022-11-20T07:29:14;38.35;;;18.75;;
17965;SDS011;9108;53.204;10.424;2022-11-20T07:31:41;37.60;;;18.52;;
17965;SDS011;9108;53.204;10.424;2022-11-20T07:34:10;38.58;;;18.70;;
17965;SDS011;9108;53.204;10.424;2022-11-20T07:36:37;40.42;;;19.25;;
17965;SDS011;9108;53.204;10.424;2022-11-20T07:39:04;39.85;;;19.15;;
17965;SDS011;9108;53.204;10.424;2022-11-20T07:41:32;37.70;;;19.10;;
17965;SDS011;9108;53.204;10.424;2022-11-20T07:44:01;40.40;;;19.13;;
17965;SDS011;9108;53.204;10.424;2022-11-20T07:46:28;38.65;;;18.42;;
17965;SDS011;9108;53.204;10.424;2022-11-20T07:48:56;37.75;;;18.77;;
17965;SDS011;9108;53.204;10.424;2022-11-20T07:51:24;34.95;;;17.77;;
17965;SDS011;9108;53.204;10.424;2022-11-20T07:53:52;38.25;;;18.17;;
17965;SDS011;9108;53.204;10.424;2022-11-20T07:56:19;31.75;;;16.45;;
17965;SDS011;9108;53.204;10.424;2022-11-20T07:58:46;33.20;;;16.57;;
17965;SDS011;9108;53.204;10.424;2022-11-20T08:01:14;35.78;;;17.92;;
17965;SDS011;9108;53.204;10.424;2022-11-20T08:03:41;32.97;;;17.33;;
17965;SDS011;9108;53.204;10.424;2022-11-20T08:06:08;37.65;;;19.25;;
17965;SDS011;9108;53.204;10.424;2022-11-20T08:08:37;34.58;;;16.85;;
17965;SDS011;9108;53.204;10.424;2022-11-20T08:11:05;38.00;;;16.95;;
17965;SDS011;9108;53.204;10.424;2022-11-20T08:13:53;39.65;;;17.90;;
17965;SDS011;9108;53.204;10.424;2022-11-20T08:16:38;41.17;;;18.60;;
17965;SDS011;9108;53.204;10.424;2022-11-20T08:19:06;36.13;;;16.50;;
17965;SDS011;9108;53.204;10.424;2022-11-20T08:21:33;30.50;;;15.70;;
17965;SDS011;9108;53.204;10.424;2022-11-20T08:24:02;28.92;;;14.57;;
17965;SDS011;9108;53.204;10.424;2022-11-20T08:26:31;26.83;;;14.80;;
17965;SDS011;9108;53.204;10.424;2022-11-20T08:28:58;30.02;;;15.23;;
17965;SDS011;9108;53.204;10.424;2022-11-20T08:31:26;27.67;;;14.45;;
17965;SDS011;9108;53.204;10.424;2022-11-20T08:33:53;27.13;;;14.25;;
17965;SDS011;9108;53.204;10.424;2022-11-20T08:36:21;27.17;;;14.15;;
17965;SDS011;9108;53.204;10.424;2022-11-20T08:38:48;26.50;;;14.05;;
17965;SDS011;9108;53.204;10.424;2022-11-20T08:41:19;27.60;;;13.85;;
17965;SDS011;9108;53.204;10.424;2022-11-20T08:43:50;27.33;;;13.13;;
17965;SDS011;9108;53.204;10.424;2022-11-20T08:46:18;25.45;;;13.00;;
17965;SDS011;9108;53.204;10.424;2022-11-20T08:48:46;22.50;;;12.30;;
17965;SDS011;9108;53.204;10.424;2022-11-20T08:51:13;27.70;;;13.43;;
17965;SDS011;9108;53.204;10.424;2022-11-20T08:53:40;26.27;;;13.52;;
17965;SDS011;9108;53.204;10.424;2022-11-20T08:56:08;24.17;;;11.95;;
17965;SDS011;9108;53.204;10.424;2022-11-20T08:58:37;21.02;;;11.65;;
17965;SDS011;9108;53.204;10.424;2022-11-20T09:01:04;23.10;;;11.98;;
17965;SDS011;9108;53.204;10.424;2022-11-20T09:03:31;25.05;;;13.35;;
17965;SDS011;9108;53.204;10.424;2022-11-20T09:05:59;21.48;;;11.75;;
17965;SDS011;9108;53.204;10.424;2022-11-20T09:08:26;21.40;;;11.38;;
17965;SDS011;9108;53.204;10.424;2022-11-20T09:10:53;20.52;;;11.00;;
17965;SDS011;9108;53.204;10.424;2022-11-20T09:13:21;18.52;;;10.05;;
17965;SDS011;9108;53.204;10.424;2022-11-20T09:15:53;17.67;;;10.02;;
17965;SDS011;9108;53.204;10.424;2022-11-20T09:18:21;14.90;;;9.02;;
17965;SDS011;9108;53.204;10.424;2022-11-20T09:20:49;15.68;;;8.73;;
17965;SDS011;9108;53.204;10.424;2022-11-20T09:23:16;15.60;;;8.70;;
17965;SDS011;9108;53.204;10.424;2022-11-20T09:25:43;13.82;;;8.63;;
17965;SDS011;9108;53.204;10.424;2022-11-20T09:28:10;14.40;;;8.30;;
17965;SDS011;9108;53.204;10.424;2022-11-20T09:30:37;15.93;;;8.75;;
17965;SDS011;9108;53.204;10.424;2022-11-20T09:33:06;15.85;;;8.73;;
17965;SDS011;9108;53.204;10.424;2022-11-20T09:35:33;15.60;;;8.50;;
17965;SDS011;9108;53.204;10.424;2022-11-20T09:38:04;14.93;;;8.10;;
17965;SDS011;9108;53.204;10.424;2022-11-20T09:40:31;15.10;;;8.77;;
17965;SDS011;9108;53.204;10.424;2022-11-20T09:42:59;14.02;;;8.50;;
17965;SDS011;9108;53.204;10.424;2022-11-20T09:45:31;13.73;;;8.00;;
17965;SDS011;9108;53.204;10.424;2022-11-20T09:48:07;13.52;;;7.45;;
17965;SDS011;9108;53.204;10.424;2022-11-20T09:50:36;13.30;;;7.40;;
17965;SDS011;9108;53.204;10.424;2022-11-20T09:53:11;12.75;;;7.05;;
17965;SDS011;9108;53.204;10.424;2022-11-20T09:55:39;11.88;;;6.88;;
17965;SDS011;9108;53.204;10.424;2022-11-20T09:58:06;13.07;;;7.20;;
17965;SDS011;9108;53.204;10.424;2022-11-20T10:00:34;13.07;;;7.22;;
17965;SDS011;9108;53.204;10.424;2022-11-20T10:03:04;12.95;;;6.85;;
17965;SDS011;9108;53.204;10.424;2022-11-20T10:05:35;13.00;;;7.25;;
17965;SDS011;9108;53.204;10.424;2022-11-20T10:08:10;13.27;;;7.38;;
17965;SDS011;9108;53.204;10.424;2022-11-20T10:10:42;13.38;;;7.30;;
17965;SDS011;9108;53.204;10.424;2022-11-20T10:13:14;12.13;;;6.82;;
17965;SDS011;9108;53.204;10.424;2022-11-20T10:15:46;13.38;;;6.82;;
17965;SDS011;9108;53.204;10.424;2022-11-20T10:18:20;12.10;;;7.23;;
17965;SDS011;9108;53.204;10.424;2022-11-20T10:20:53;11.75;;;6.97;;
17965;SDS011;9108;53.204;10.424;2022-11-20T10:23:37;11.38;;;6.70;;
17965;SDS011;9108;53.204;10.424;2022-11-20T10:26:17;10.90;;;6.72;;
17965;SDS011;9108;53.204;10.424;2022-11-20T10:28:47;12.32;;;7.05;;
17965;SDS011;9108;53.204;10.424;2022-11-20T10:31:17;11.80;;;7.07;;
17965;SDS011;9108;53.204;10.424;2022-11-20T10:33:49;12.23;;;6.90;;
17965;SDS011;9108;53.204;10.424;2022-11-20T10:36:21;11.98;;;6.60;;
17965;SDS011;9108;53.204;10.424;2022-11-20T10:38:49;11.95;;;6.93;;
17965;SDS011;9108;53.204;10.424;2022-11-20T10:41:20;12.17;;;6.90;;
17965;SDS011;9108;53.204;10.424;2022-11-20T10:43:52;10.43;;;6.90;;
17965;SDS011;9108;53.204;10.424;2022-11-20T10:46:21;11.35;;;6.40;;
17965;SDS011;9108;53.204;10.424;2022-11-20T10:48:49;11.15;;;6.80;;
17965;SDS011;9108;53.204;10.424;2022-11-20T10:51:18;10.25;;;6.38;;
17965;SDS011;9108;53.204;10.424;2022-11-20T10:53:53;9.93;;;6.35;;
17965;SDS011;9108;53.204;10.424;2022-11-20T10:56:23;9.43;;;5.90;;
17965;SDS011;9108;53.204;10.424;2022-11-20T11:01:39;10.70;;;6.28;;
17965;SDS011;9108;53.204;10.424;2022-11-20T11:04:07;11.18;;;6.10;;
17965;SDS011;9108;53.204;10.424;2022-11-20T11:06:42;10.05;;;5.90;;
17965;SDS011;9108;53.204;10.424;2022-11-20T11:09:14;8.00;;;5.27;;
17965;SDS011;9108;53.204;10.424;2022-11-20T11:11:42;9.25;;;5.40;;
17965;SDS011;9108;53.204;10.424;2022-11-20T11:14:10;7.82;;;5.10;;
17965;SDS011;9108;53.204;10.424;2022-11-20T11:16:40;12.25;;;5.68;;
17965;SDS011;9108;53.204;10.424;2022-11-20T11:19:15;9.95;;;5.80;;
17965;SDS011;9108;53.204;10.424;2022-11-20T11:21:45;11.05;;;6.10;;
17965;SDS011;9108;53.204;10.424;2022-11-20T11:24:20;10.63;;;6.00;;
17965;SDS011;9108;53.204;10.424;2022-11-20T11:26:55;9.95;;;5.97;;
17965;SDS011;9108;53.204;10.424;2022-11-20T11:29:23;8.93;;;5.60;;
17965;SDS011;9108;53.204;10.424;2022-11-20T11:32:02;11.87;;;5.83;;
17965;SDS011;9108;53.204;10.424;2022-11-20T11:34:29;7.90;;;5.00;;
17965;SDS011;9108;53.204;10.424;2022-11-20T11:36:57;8.52;;;5.20;;
17965;SDS011;9108;53.204;10.424;2022-11-20T11:39:26;10.10;;;5.33;;
17965;SDS011;9108;53.204;10.424;2022-11-20T11:41:54;9.70;;;5.72;;
17965;SDS011;9108;53.204;10.424;2022-11-20T11:44:21;7.28;;;4.68;;
17965;SDS011;9108;53.204;10.424;2022-11-20T11:47:09;8.48;;;4.97;;
17965;SDS011;9108;53.204;10.424;2022-11-20T11:49:39;7.88;;;5.05;;
17965;SDS011;9108;53.204;10.424;2022-11-20T11:52:08;7.85;;;4.93;;
17965;SDS011;9108;53.204;10.424;2022-11-20T11:54:40;7.15;;;5.03;;
17965;SDS011;9108;53.204;10.424;2022-11-20T11:57:10;8.32;;;4.90;;
17965;SDS011;9108;53.204;10.424;2022-11-20T11:59:43;9.48;;;5.30;;
17965;SDS011;9108;53.204;10.424;2022-11-20T12:02:13;8.02;;;4.57;;
17965;SDS011;9108;53.204;10.424;2022-11-20T12:04:43;6.88;;;4.40;;
17965;SDS011;9108;53.204;10.424;2022-11-20T12:07:12;7.32;;;4.22;;
17965;SDS011;9108;53.204;10.424;2022-11-20T12:09:43;7.97;;;4.68;;
17965;SDS011;9108;53.204;10.424;2022-11-20T12:12:15;9.02;;;5.20;;
17965;SDS011;9108;53.204;10.424;2022-11-20T12:14:44;7.95;;;5.00;;
17965;SDS011;9108;53.204;10.424;2022-11-20T12:17:14;7.53;;;4.18;;
17965;SDS011;9108;53.204;10.424;2022-11-20T12:19:42;6.13;;;4.13;;
17965;SDS011;9108;53.204;10.424;2022-11-20T12:22:12;6.72;;;4.30;;
17965;SDS011;9108;53.204;10.424;2022-11-20T12:24:46;9.05;;;4.72;;
17965;SDS011;9108;53.204;10.424;2022-11-20T12:27:23;7.22;;;4.35;;
17965;SDS011;9108;53.204;10.424;2022-11-20T12:29:56;9.75;;;5.45;;
17965;SDS011;9108;53.204;10.424;2022-11-20T12:35:30;7.55;;;4.38;;
17965;SDS011;9108;53.204;10.424;2022-11-20T12:38:05;6.65;;;4.20;;
17965;SDS011;9108;53.204;10.424;2022-11-20T12:40:38;8.50;;;4.70;;
17965;SDS011;9108;53.204;10.424;2022-11-20T12:43:11;6.40;;;4.05;;
17965;SDS011;9108;53.204;10.424;2022-11-20T12:46:18;7.87;;;4.07;;
17965;SDS011;9108;53.204;10.424;2022-11-20T12:48:53;7.25;;;4.45;;
17965;SDS011;9108;53.204;10.424;2022-11-20T12:54:16;8.55;;;4.30;;
17965;SDS011;9108;53.204;10.424;2022-11-20T12:56:52;8.45;;;4.43;;
17965;SDS011;9108;53.204;10.424;2022-11-20T12:59:27;8.20;;;4.30;;
17965;SDS011;9108;53.204;10.424;2022-11-20T13:01:58;10.67;;;4.40;;
17965;SDS011;9108;53.204;10.424;2022-11-20T13:04:44;7.20;;;4.32;;
17965;SDS011;9108;53.204;10.424;2022-11-20T13:07:13;9.23;;;4.50;;
17965;SDS011;9108;53.204;10.424;2022-11-20T13:09:42;7.13;;;4.30;;
17965;SDS011;9108;53.204;10.424;2022-11-20T13:12:11;7.38;;;4.50;;
17965;SDS011;9108;53.204;10.424;2022-11-20T13:14:41;6.03;;;3.92;;
17965;SDS011;9108;53.204;10.424;2022-11-20T13:17:10;5.80;;;3.80;;
17965;SDS011;9108;53.204;10.424;2022-11-20T13:19:38;5.78;;;3.90;;
17965;SDS011;9108;53.204;10.424;2022-11-20T13:22:07;6.28;;;4.18;;
17965;SDS011;9108;53.204;10.424;2022-11-20T13:24:35;7.95;;;4.50;;
17965;SDS011;9108;53.204;10.424;2022-11-20T13:27:03;10.00;;;4.75;;
17965;SDS011;9108;53.204;10.424;2022-11-20T13:29:32;8.27;;;5.05;;
17965;SDS011;9108;53.204;10.424;2022-11-20T13:32:06;8.90;;;4.93;;
17965;SDS011;9108;53.204;10.424;2022-11-20T13:34:33;10.23;;;5.65;;
17965;SDS011;9108;53.204;10.424;2022-11-20T13:37:01;9.93;;;5.68;;
17965;SDS011;9108;53.204;10.424;2022-11-20T13:39:30;9.18;;;5.88;;
17965;SDS011;9108;53.204;10.424;2022-11-20T13:41:58;8.93;;;5.35;;
17965;SDS011;9108;53.204;10.424;2022-11-20T13:44:27;8.25;;;5.10;;
17965;SDS011;9108;53.204;10.424;2022-11-20T13:46:57;9.20;;;4.97;;
17965;SDS011;9108;53.204;10.424;2022-11-20T13:49:25;7.70;;;4.65;;
17965;SDS011;9108;53.204;10.424;2022-11-20T13:51:56;8.30;;;4.80;;
17965;SDS011;9108;53.204;10.424;2022-11-20T13:54:30;8.65;;;5.00;;
17965;SDS011;9108;53.204;10.424;2022-11-20T13:57:04;7.78;;;4.30;;
17965;SDS011;9108;53.204;10.424;2022-11-20T13:59:39;6.82;;;4.25;;
17965;SDS011;9108;53.204;10.424;2022-11-20T14:02:11;6.75;;;4.30;;
17965;SDS011;9108;53.204;10.424;2022-11-20T14:04:42;6.90;;;4.30;;
17965;SDS011;9108;53.204;10.424;2022-11-20T14:07:09;7.33;;;4.30;;
17965;SDS011;9108;53.204;10.424;2022-11-20T14:09:37;5.90;;;4.10;;
17965;SDS011;9108;53.204;10.424;2022-11-20T14:12:14;6.38;;;3.92;;
17965;SDS011;9108;53.204;10.424;2022-11-20T14:14:47;7.18;;;4.20;;
17965;SDS011;9108;53.204;10.424;2022-11-20T14:17:17;5.60;;;4.03;;
17965;SDS011;9108;53.204;10.424;2022-11-20T14:19:45;11.18;;;6.95;;
17965;SDS011;9108;53.204;10.424;2022-11-20T14:22:17;7.82;;;5.20;;
17965;SDS011;9108;53.204;10.424;2022-11-20T14:24:45;7.07;;;4.90;;
17965;SDS011;9108;53.204;10.424;2022-11-20T14:27:13;5.97;;;3.92;;
17965;SDS011;9108;53.204;10.424;2022-11-20T14:29:40;6.32;;;4.40;;
17965;SDS011;9108;53.204;10.424;2022-11-20T14:32:08;6.25;;;4.40;;
17965;SDS011;9108;53.204;10.424;2022-11-20T14:34:38;6.43;;;4.22;;
17965;SDS011;9108;53.204;10.424;2022-11-20T14:37:09;7.33;;;4.10;;
17965;SDS011;9108;53.204;10.424;2022-11-20T14:39:40;6.30;;;4.35;;
17965;SDS011;9108;53.204;10.424;2022-11-20T14:42:13;6.22;;;4.20;;
17965;SDS011;9108;53.204;10.424;2022-11-20T14:44:41;7.03;;;4.25;;
17965;SDS011;9108;53.204;10.424;2022-11-20T14:47:09;7.55;;;4.15;;
17965;SDS011;9108;53.204;10.424;2022-11-20T14:49:39;6.65;;;3.95;;
17965;SDS011;9108;53.204;10.424;2022-11-20T14:52:11;5.90;;;3.95;;
17965;SDS011;9108;53.204;10.424;2022-11-20T14:54:43;5.65;;;3.85;;